Terminal Aerodrome Forecast
Issued by NWS New Orleans/Baton Rouge, LA

Home | Current Version | Previous Version | Text Only | Print | Product List | Glossary On
Versions: 1 2 3 4 5 6 7 8 9 10 11 12 13 14 15 16 17 18 19 20
000
FTUS44 KLIX 250525
TAFBTR
TAF
KBTR 250525Z 2506/2606 17005KT P6SM OVC009
     FM251400 21008KT P6SM VCTS SCT035CB
     FM251700 21007KT P6SM SCT035
     FM260200 20006KT P6SM BKN035=

USA.gov is the U.S. government's official web portal to all federal, state and local government web resources and services.